sensor_id;sensor_type;location;lat;lon;timestamp;pressure;altitude;pressure_sealevel;temperature;humidity
78488;BME280;67885;49.758;9.582;2023-07-30T00:00:54;98673.97;;;23.38;54.98
78488;BME280;67885;49.758;9.582;2023-07-30T00:03:22;98660.44;;;23.38;54.86
78488;BME280;67885;49.758;9.582;2023-07-30T00:05:52;98654.00;;;23.39;55.32
78488;BME280;67885;49.758;9.582;2023-07-30T00:08:19;98652.75;;;23.42;55.61
78488;BME280;67885;49.758;9.582;2023-07-30T00:10:46;98649.81;;;23.44;55.37
78488;BME280;67885;49.758;9.582;2023-07-30T00:13:13;98643.13;;;23.46;54.80
78488;BME280;67885;49.758;9.582;2023-07-30T00:15:39;98645.19;;;23.51;54.49
78488;BME280;67885;49.758;9.582;2023-07-30T00:18:06;98651.88;;;23.48;54.26
78488;BME280;67885;49.758;9.582;2023-07-30T00:20:35;98646.66;;;23.47;54.40
78488;BME280;67885;49.758;9.582;2023-07-30T00:23:02;98648.78;;;23.45;53.59
78488;BME280;67885;49.758;9.582;2023-07-30T00:25:28;98645.44;;;23.43;53.98
78488;BME280;67885;49.758;9.582;2023-07-30T00:27:55;98651.91;;;23.42;54.54
78488;BME280;67885;49.758;9.582;2023-07-30T00:30:22;98645.25;;;23.44;54.37
78488;BME280;67885;49.758;9.582;2023-07-30T00:32:48;98645.84;;;23.46;53.80
78488;BME280;67885;49.758;9.582;2023-07-30T00:35:15;98643.13;;;23.46;53.80
78488;BME280;67885;49.758;9.582;2023-07-30T00:37:43;98645.66;;;23.41;54.37
78488;BME280;67885;49.758;9.582;2023-07-30T00:40:11;98641.97;;;23.35;54.88
78488;BME280;67885;49.758;9.582;2023-07-30T00:42:38;98645.72;;;23.34;54.50
78488;BME280;67885;49.758;9.582;2023-07-30T00:45:05;98646.34;;;23.36;54.94
78488;BME280;67885;49.758;9.582;2023-07-30T00:47:32;98619.47;;;23.16;55.95
78488;BME280;67885;49.758;9.582;2023-07-30T00:50:00;98661.88;;;23.41;56.05
78488;BME280;67885;49.758;9.582;2023-07-30T00:52:28;98661.47;;;23.44;55.48
78488;BME280;67885;49.758;9.582;2023-07-30T00:54:57;98677.06;;;23.42;55.34
78488;BME280;67885;49.758;9.582;2023-07-30T00:57:25;98663.28;;;23.50;55.70
78488;BME280;67885;49.758;9.582;2023-07-30T00:59:53;98671.38;;;23.50;55.14
78488;BME280;67885;49.758;9.582;2023-07-30T01:02:20;98673.28;;;23.50;54.97
78488;BME280;67885;49.758;9.582;2023-07-30T01:04:48;98672.22;;;23.51;54.39
78488;BME280;67885;49.758;9.582;2023-07-30T01:07:14;98682.59;;;23.54;54.22
78488;BME280;67885;49.758;9.582;2023-07-30T01:09:41;98684.44;;;23.53;54.31
78488;BME280;67885;49.758;9.582;2023-07-30T01:12:10;98675.16;;;23.43;55.64
78488;BME280;67885;49.758;9.582;2023-07-30T01:14:37;98695.31;;;23.47;54.78
78488;BME280;67885;49.758;9.582;2023-07-30T01:17:06;98700.13;;;23.45;55.42
78488;BME280;67885;49.758;9.582;2023-07-30T01:19:32;98701.38;;;23.42;55.43
78488;BME280;67885;49.758;9.582;2023-07-30T01:22:00;98699.13;;;23.39;56.06
78488;BME280;67885;49.758;9.582;2023-07-30T01:24:27;98699.34;;;23.37;56.10
78488;BME280;67885;49.758;9.582;2023-07-30T01:26:58;98696.44;;;23.39;55.75
78488;BME280;67885;49.758;9.582;2023-07-30T01:29:32;98703.91;;;23.37;55.74
78488;BME280;67885;49.758;9.582;2023-07-30T01:32:05;98714.13;;;23.35;56.34
78488;BME280;67885;49.758;9.582;2023-07-30T01:34:35;98718.69;;;23.34;56.40
78488;BME280;67885;49.758;9.582;2023-07-30T01:37:05;98722.22;;;23.35;57.17
78488;BME280;67885;49.758;9.582;2023-07-30T01:39:37;98714.34;;;23.33;56.87
78488;BME280;67885;49.758;9.582;2023-07-30T01:42:05;98719.31;;;23.36;56.33
78488;BME280;67885;49.758;9.582;2023-07-30T01:44:32;98715.78;;;23.36;57.00
78488;BME280;67885;49.758;9.582;2023-07-30T01:46:59;98714.50;;;23.38;57.31
78488;BME280;67885;49.758;9.582;2023-07-30T01:49:25;98709.53;;;23.35;56.76
78488;BME280;67885;49.758;9.582;2023-07-30T01:51:52;98711.69;;;23.27;57.52
78488;BME280;67885;49.758;9.582;2023-07-30T01:54:20;98703.84;;;23.18;57.58
78488;BME280;67885;49.758;9.582;2023-07-30T01:56:47;98709.66;;;23.15;57.82
78488;BME280;67885;49.758;9.582;2023-07-30T01:59:13;98705.69;;;23.18;57.83
78488;BME280;67885;49.758;9.582;2023-07-30T02:01:41;98701.50;;;23.22;57.15
78488;BME280;67885;49.758;9.582;2023-07-30T02:04:08;98699.44;;;23.24;57.43
78488;BME280;67885;49.758;9.582;2023-07-30T02:06:34;98699.44;;;23.24;57.13
78488;BME280;67885;49.758;9.582;2023-07-30T02:09:02;98694.63;;;23.26;57.59
78488;BME280;67885;49.758;9.582;2023-07-30T02:11:30;98696.91;;;23.29;57.55
78488;BME280;67885;49.758;9.582;2023-07-30T02:13:56;98693.13;;;23.30;58.02
78488;BME280;67885;49.758;9.582;2023-07-30T02:16:23;98698.72;;;23.35;57.59
78488;BME280;67885;49.758;9.582;2023-07-30T02:18:50;98701.59;;;23.40;57.02
78488;BME280;67885;49.758;9.582;2023-07-30T02:21:16;98696.78;;;23.43;57.23
78488;BME280;67885;49.758;9.582;2023-07-30T02:23:43;98697.41;;;23.45;57.67
78488;BME280;67885;49.758;9.582;2023-07-30T02:26:10;98695.97;;;23.42;57.14
78488;BME280;67885;49.758;9.582;2023-07-30T02:28:37;98505.19;;;22.20;57.88
78488;BME280;67885;49.758;9.582;2023-07-30T02:31:04;98692.47;;;23.42;57.87
78488;BME280;67885;49.758;9.582;2023-07-30T02:33:31;98701.38;;;23.42;57.54
78488;BME280;67885;49.758;9.582;2023-07-30T02:35:57;98693.06;;;23.44;57.74
78488;BME280;67885;49.758;9.582;2023-07-30T02:38:24;98701.78;;;23.46;57.80
78488;BME280;67885;49.758;9.582;2023-07-30T02:40:50;98699.91;;;23.46;57.90
78488;BME280;67885;49.758;9.582;2023-07-30T02:43:17;98694.72;;;23.45;57.96
78488;BME280;67885;49.758;9.582;2023-07-30T02:45:48;98700.34;;;23.43;58.29
78488;BME280;67885;49.758;9.582;2023-07-30T02:48:15;98708.69;;;23.42;58.59
78488;BME280;67885;49.758;9.582;2023-07-30T02:50:42;98691.91;;;23.26;58.20
78488;BME280;67885;49.758;9.582;2023-07-30T02:53:08;98710.16;;;23.37;58.21
78488;BME280;67885;49.758;9.582;2023-07-30T02:55:35;98711.41;;;23.35;58.31
78488;BME280;67885;49.758;9.582;2023-07-30T02:58:02;98717.88;;;23.34;58.22
78488;BME280;67885;49.758;9.582;2023-07-30T03:00:28;98717.69;;;23.29;58.83
78488;BME280;67885;49.758;9.582;2023-07-30T03:02:57;98714.19;;;23.21;58.98
78488;BME280;67885;49.758;9.582;2023-07-30T03:05:23;98725.78;;;23.29;59.01
78488;BME280;67885;49.758;9.582;2023-07-30T03:07:50;98720.38;;;23.29;59.05
78488;BME280;67885;49.758;9.582;2023-07-30T03:10:17;98726.81;;;23.28;59.23
78488;BME280;67885;49.758;9.582;2023-07-30T03:12:44;98457.16;;;21.45;58.83
78488;BME280;67885;49.758;9.582;2023-07-30T03:15:10;98592.13;;;22.22;59.02
78488;BME280;67885;49.758;9.582;2023-07-30T03:17:37;98720.16;;;23.30;58.96
78488;BME280;67885;49.758;9.582;2023-07-30T03:20:06;98719.13;;;23.31;59.21
78488;BME280;67885;49.758;9.582;2023-07-30T03:22:34;98723.28;;;23.34;58.55
78488;BME280;67885;49.758;9.582;2023-07-30T03:25:00;98729.72;;;23.33;59.53
78488;BME280;67885;49.758;9.582;2023-07-30T03:27:27;98734.88;;;23.34;59.16
78488;BME280;67885;49.758;9.582;2023-07-30T03:29:54;98713.97;;;23.23;58.68
78488;BME280;67885;49.758;9.582;2023-07-30T03:32:20;98733.44;;;23.32;59.07
78488;BME280;67885;49.758;9.582;2023-07-30T03:34:47;98737.03;;;23.26;59.60
78488;BME280;67885;49.758;9.582;2023-07-30T03:37:15;98736.00;;;23.27;59.53
78488;BME280;67885;49.758;9.582;2023-07-30T03:39:42;98731.19;;;23.29;58.77
78488;BME280;67885;49.758;9.582;2023-07-30T03:42:08;98737.63;;;23.28;59.09
78488;BME280;67885;49.758;9.582;2023-07-30T03:44:35;98741.78;;;23.30;58.93
78488;BME280;67885;49.758;9.582;2023-07-30T03:47:02;98741.38;;;23.33;58.91
78488;BME280;67885;49.758;9.582;2023-07-30T03:49:28;98739.47;;;23.34;58.27
78488;BME280;67885;49.758;9.582;2023-07-30T03:51:55;98735.50;;;23.36;58.86
78488;BME280;67885;49.758;9.582;2023-07-30T03:54:23;98736.97;;;23.39;58.02
78488;BME280;67885;49.758;9.582;2023-07-30T03:56:49;98730.56;;;23.33;58.41
78488;BME280;67885;49.758;9.582;2023-07-30T03:59:16;98690.34;;;23.12;58.22
78488;BME280;67885;49.758;9.582;2023-07-30T04:01:43;98741.91;;;23.42;58.05
78488;BME280;67885;49.758;9.582;2023-07-30T04:04:09;98732.16;;;23.41;57.69
78488;BME280;67885;49.758;9.582;2023-07-30T04:06:36;98742.16;;;23.40;57.16
78488;BME280;67885;49.758;9.582;2023-07-30T04:09:03;98743.81;;;23.42;57.78
78488;BME280;67885;49.758;9.582;2023-07-30T04:11:31;98550.00;;;22.21;56.80
78488;BME280;67885;49.758;9.582;2023-07-30T04:13:57;98746.50;;;23.42;57.21
78488;BME280;67885;49.758;9.582;2023-07-30T04:16:24;98750.66;;;23.44;56.64
78488;BME280;67885;49.758;9.582;2023-07-30T04:18:51;98596.84;;;22.40;56.30
78488;BME280;67885;49.758;9.582;2023-07-30T04:21:17;98756.66;;;23.46;56.80
78488;BME280;67885;49.758;9.582;2023-07-30T04:23:44;98722.72;;;23.25;57.06
78488;BME280;67885;49.758;9.582;2023-07-30T04:26:11;98755.44;;;23.42;56.40
78488;BME280;67885;49.758;9.582;2023-07-30T04:28:39;98760.63;;;23.44;54.14
78488;BME280;67885;49.758;9.582;2023-07-30T04:31:05;98765.56;;;23.47;54.72
78488;BME280;67885;49.758;9.582;2023-07-30T04:33:32;98775.75;;;23.51;54.93
78488;BME280;67885;49.758;9.582;2023-07-30T04:35:58;98772.88;;;23.46;56.14
78488;BME280;67885;49.758;9.582;2023-07-30T04:38:25;98771.25;;;23.38;56.36
78488;BME280;67885;49.758;9.582;2023-07-30T04:40:52;98768.38;;;23.33;56.29
78488;BME280;67885;49.758;9.582;2023-07-30T04:43:18;98777.09;;;23.35;56.46
78488;BME280;67885;49.758;9.582;2023-07-30T04:45:46;98781.69;;;23.35;56.42
78488;BME280;67885;49.758;9.582;2023-07-30T04:48:13;98783.13;;;23.37;56.64
78488;BME280;67885;49.758;9.582;2023-07-30T04:50:40;98778.31;;;23.39;56.58
78488;BME280;67885;49.758;9.582;2023-07-30T04:53:07;98780.56;;;23.43;56.67
78488;BME280;67885;49.758;9.582;2023-07-30T04:55:34;98775.34;;;23.48;56.32
78488;BME280;67885;49.758;9.582;2023-07-30T04:58:01;98772.28;;;23.44;56.26
78488;BME280;67885;49.758;9.582;2023-07-30T05:00:28;98791.97;;;23.51;56.46
78488;BME280;67885;49.758;9.582;2023-07-30T05:02:56;98790.53;;;23.49;56.98
78488;BME280;67885;49.758;9.582;2023-07-30T05:05:23;98787.19;;;23.47;56.57
78488;BME280;67885;49.758;9.582;2023-07-30T05:07:50;98789.72;;;23.48;56.50
78488;BME280;67885;49.758;9.582;2023-07-30T05:10:16;98797.38;;;23.51;56.76
78488;BME280;67885;49.758;9.582;2023-07-30T05:12:43;98791.31;;;23.56;56.54
78488;BME280;67885;49.758;9.582;2023-07-30T05:15:09;98791.31;;;23.56;56.58
78488;BME280;67885;49.758;9.582;2023-07-30T05:17:36;98797.78;;;23.55;56.83
78488;BME280;67885;49.758;9.582;2023-07-30T05:20:05;98803.59;;;23.52;57.06
78488;BME280;67885;49.758;9.582;2023-07-30T05:22:32;98801.75;;;23.52;56.87
78488;BME280;67885;49.758;9.582;2023-07-30T05:24:59;98797.97;;;23.53;56.72
78488;BME280;67885;49.758;9.582;2023-07-30T05:27:26;98801.78;;;23.46;56.48
78488;BME280;67885;49.758;9.582;2023-07-30T05:29:54;98795.78;;;23.37;56.75
78488;BME280;67885;49.758;9.582;2023-07-30T05:32:20;98799.34;;;23.37;57.62
78488;BME280;67885;49.758;9.582;2023-07-30T05:34:47;98811.78;;;23.38;58.03
78488;BME280;67885;49.758;9.582;2023-07-30T05:37:15;98812.41;;;23.40;58.06
78488;BME280;67885;49.758;9.582;2023-07-30T05:39:42;98805.13;;;23.41;58.23
78488;BME280;67885;49.758;9.582;2023-07-30T05:42:08;98812.59;;;23.46;57.71
78488;BME280;67885;49.758;9.582;2023-07-30T05:44:35;98809.88;;;23.46;57.63
78488;BME280;67885;49.758;9.582;2023-07-30T05:47:02;98819.00;;;23.51;57.88
78488;BME280;67885;49.758;9.582;2023-07-30T05:49:29;98818.13;;;23.57;58.29
78488;BME280;67885;49.758;9.582;2023-07-30T05:51:55;98818.53;;;23.61;58.46
78488;BME280;67885;49.758;9.582;2023-07-30T05:54:23;98817.88;;;23.66;57.94
78488;BME280;67885;49.758;9.582;2023-07-30T05:56:50;98822.22;;;23.67;57.14
78488;BME280;67885;49.758;9.582;2023-07-30T05:59:16;98815.56;;;23.69;57.56
78488;BME280;67885;49.758;9.582;2023-07-30T06:01:43;98818.88;;;23.71;57.25
78488;BME280;67885;49.758;9.582;2023-07-30T06:04:10;98812.22;;;23.74;57.12
78488;BME280;67885;49.758;9.582;2023-07-30T06:06:36;98814.91;;;23.74;57.54
78488;BME280;67885;49.758;9.582;2023-07-30T06:09:03;98803.88;;;23.76;57.03
78488;BME280;67885;49.758;9.582;2023-07-30T06:11:31;98802.63;;;23.78;57.13
78488;BME280;67885;49.758;9.582;2023-07-30T06:13:58;98798.66;;;23.81;57.04
78488;BME280;67885;49.758;9.582;2023-07-30T06:16:24;98791.19;;;23.76;56.83
78488;BME280;67885;49.758;9.582;2023-07-30T06:18:51;98791.63;;;23.73;57.18
78488;BME280;67885;49.758;9.582;2023-07-30T06:21:17;98778.19;;;23.60;56.63
78488;BME280;67885;49.758;9.582;2023-07-30T06:23:44;98799.56;;;23.68;57.20
78488;BME280;67885;49.758;9.582;2023-07-30T06:26:11;98793.97;;;23.63;57.08
78488;BME280;67885;49.758;9.582;2023-07-30T06:28:39;98796.31;;;23.59;57.73
78488;BME280;67885;49.758;9.582;2023-07-30T06:31:05;98795.22;;;23.60;57.25
78488;BME280;67885;49.758;9.582;2023-07-30T06:33:32;98789.81;;;23.60;57.12
78488;BME280;67885;49.758;9.582;2023-07-30T06:35:59;98798.78;;;23.61;57.61
78488;BME280;67885;49.758;9.582;2023-07-30T06:38:25;98800.22;;;23.63;57.01
78488;BME280;67885;49.758;9.582;2023-07-30T06:40:52;98803.53;;;23.65;56.81
78488;BME280;67885;49.758;9.582;2023-07-30T06:43:19;98800.56;;;23.73;57.52
78488;BME280;67885;49.758;9.582;2023-07-30T06:45:47;98761.56;;;23.56;57.18
78488;BME280;67885;49.758;9.582;2023-07-30T06:48:14;98815.75;;;24.06;57.71
78488;BME280;67885;49.758;9.582;2023-07-30T06:50:41;98737.16;;;23.69;57.01
78488;BME280;67885;49.758;9.582;2023-07-30T06:53:08;98831.69;;;24.40;55.86
78488;BME280;67885;49.758;9.582;2023-07-30T06:55:34;98828.63;;;24.55;55.57
78488;BME280;67885;49.758;9.582;2023-07-30T06:58:02;98833.94;;;24.68;54.74
78488;BME280;67885;49.758;9.582;2023-07-30T07:00:29;98838.25;;;24.76;54.58
78488;BME280;67885;49.758;9.582;2023-07-30T07:02:57;98837.56;;;24.81;53.01
78488;BME280;67885;49.758;9.582;2023-07-30T07:05:24;98845.25;;;24.84;53.75
78488;BME280;67885;49.758;9.582;2023-07-30T07:07:50;98847.50;;;24.87;52.71
78488;BME280;67885;49.758;9.582;2023-07-30T07:10:17;98841.63;;;24.90;53.83
78488;BME280;67885;49.758;9.582;2023-07-30T07:12:44;98839.09;;;24.95;53.82
78488;BME280;67885;49.758;9.582;2023-07-30T07:15:10;98842.31;;;25.04;52.97
78488;BME280;67885;49.758;9.582;2023-07-30T07:17:37;98840.59;;;25.10;53.50
78488;BME280;67885;49.758;9.582;2023-07-30T07:20:06;98842.31;;;25.22;53.46
78488;BME280;67885;49.758;9.582;2023-07-30T07:22:33;98839.69;;;25.34;53.05
78488;BME280;67885;49.758;9.582;2023-07-30T07:25:00;98844.34;;;25.46;52.14
78488;BME280;67885;49.758;9.582;2023-07-30T07:27:27;98837.78;;;25.53;49.64
78488;BME280;67885;49.758;9.582;2023-07-30T07:29:53;98843.00;;;25.67;51.28
78488;BME280;67885;49.758;9.582;2023-07-30T07:32:20;98848.13;;;25.75;50.89
78488;BME280;67885;49.758;9.582;2023-07-30T07:34:47;98846.03;;;25.89;49.31
78488;BME280;67885;49.758;9.582;2023-07-30T07:37:16;98767.94;;;25.49;49.82
78488;BME280;67885;49.758;9.582;2023-07-30T07:39:44;98844.13;;;26.20;47.35
78488;BME280;67885;49.758;9.582;2023-07-30T07:42:11;98842.25;;;26.32;47.23
78488;BME280;67885;49.758;9.582;2023-07-30T07:44:38;98836.22;;;26.42;46.06
78488;BME280;67885;49.758;9.582;2023-07-30T07:47:05;98839.63;;;26.49;45.92
78488;BME280;67885;49.758;9.582;2023-07-30T07:49:31;98839.75;;;26.54;45.34
78488;BME280;67885;49.758;9.582;2023-07-30T07:51:58;98810.97;;;26.53;45.71
78488;BME280;67885;49.758;9.582;2023-07-30T07:54:26;98816.63;;;26.75;47.21
78488;BME280;67885;49.758;9.582;2023-07-30T07:56:53;98827.81;;;26.91;46.00
78488;BME280;67885;49.758;9.582;2023-07-30T07:59:19;98830.88;;;27.06;45.79
78488;BME280;67885;49.758;9.582;2023-07-30T08:01:46;98825.63;;;27.17;45.40
78488;BME280;67885;49.758;9.582;2023-07-30T08:04:13;98834.25;;;27.25;44.01
78488;BME280;67885;49.758;9.582;2023-07-30T08:06:39;98836.47;;;27.29;44.85
78488;BME280;67885;49.758;9.582;2023-07-30T08:09:06;98842.25;;;27.44;43.66
78488;BME280;67885;49.758;9.582;2023-07-30T08:11:34;98837.97;;;27.48;43.02
78488;BME280;67885;49.758;9.582;2023-07-30T08:14:01;98823.56;;;27.48;42.92
78488;BME280;67885;49.758;9.582;2023-07-30T08:16:27;98815.25;;;27.54;44.09
78488;BME280;67885;49.758;9.582;2023-07-30T08:18:54;98816.41;;;27.58;43.41
78488;BME280;67885;49.758;9.582;2023-07-30T08:21:21;98817.06;;;27.66;44.24
78488;BME280;67885;49.758;9.582;2023-07-30T08:23:47;98813.97;;;27.74;43.47
78488;BME280;67885;49.758;9.582;2023-07-30T08:26:14;98816.53;;;27.81;41.90
78488;BME280;67885;49.758;9.582;2023-07-30T08:28:42;98814.97;;;27.85;42.25
78488;BME280;67885;49.758;9.582;2023-07-30T08:31:09;98820.41;;;27.85;42.46
78488;BME280;67885;49.758;9.582;2023-07-30T08:33:36;98815.13;;;27.78;42.67
78488;BME280;67885;49.758;9.582;2023-07-30T08:36:02;98821.81;;;27.70;43.25
78488;BME280;67885;49.758;9.582;2023-07-30T08:38:29;98826.34;;;27.65;43.54
78488;BME280;67885;49.758;9.582;2023-07-30T08:40:56;98823.31;;;27.49;43.07
78488;BME280;67885;49.758;9.582;2023-07-30T08:43:23;98830.31;;;27.33;42.23
78488;BME280;67885;49.758;9.582;2023-07-30T08:45:51;98832.50;;;27.19;43.58
78488;BME280;67885;49.758;9.582;2023-07-30T08:48:18;98835.00;;;27.09;44.62
78488;BME280;67885;49.758;9.582;2023-07-30T08:50:45;98845.19;;;27.02;45.84
78488;BME280;67885;49.758;9.582;2023-07-30T08:53:12;98848.25;;;26.93;45.32
78488;BME280;67885;49.758;9.582;2023-07-30T08:55:40;98853.50;;;26.83;46.07
78488;BME280;67885;49.758;9.582;2023-07-30T08:58:10;98866.94;;;26.66;46.70
78488;BME280;67885;49.758;9.582;2023-07-30T09:00:38;98860.78;;;26.47;46.27
78488;BME280;67885;49.758;9.582;2023-07-30T09:03:09;98868.91;;;26.35;47.54
78488;BME280;67885;49.758;9.582;2023-07-30T09:05:37;98887.31;;;26.21;48.37
78488;BME280;67885;49.758;9.582;2023-07-30T09:08:05;98885.28;;;26.05;47.81
78488;BME280;67885;49.758;9.582;2023-07-30T09:10:33;98881.16;;;25.84;49.67
78488;BME280;67885;49.758;9.582;2023-07-30T09:13:02;98887.84;;;25.69;49.11
78488;BME280;67885;49.758;9.582;2023-07-30T09:15:30;98880.31;;;25.53;49.52
78488;BME280;67885;49.758;9.582;2023-07-30T09:17:58;98893.84;;;25.41;50.01
78488;BME280;67885;49.758;9.582;2023-07-30T09:20:27;98880.41;;;25.28;51.08
78488;BME280;67885;49.758;9.582;2023-07-30T09:22:56;98878.66;;;25.15;51.04
78488;BME280;67885;49.758;9.582;2023-07-30T09:25:23;98871.53;;;25.02;51.64
78488;BME280;67885;49.758;9.582;2023-07-30T09:27:50;98831.78;;;24.77;51.23
78488;BME280;67885;49.758;9.582;2023-07-30T09:30:22;98868.66;;;24.97;52.97
78488;BME280;67885;49.758;9.582;2023-07-30T09:32:52;98867.00;;;24.96;52.77
78488;BME280;67885;49.758;9.582;2023-07-30T09:35:19;98867.22;;;24.94;53.47
78488;BME280;67885;49.758;9.582;2023-07-30T09:37:48;98860.16;;;24.93;52.96
78488;BME280;67885;49.758;9.582;2023-07-30T09:40:16;98861.81;;;24.94;54.71
78488;BME280;67885;49.758;9.582;2023-07-30T09:42:45;98855.03;;;25.03;55.96
78488;BME280;67885;49.758;9.582;2023-07-30T09:45:22;98855.47;;;25.19;53.45
78488;BME280;67885;49.758;9.582;2023-07-30T09:47:50;98850.22;;;25.24;53.84
78488;BME280;67885;49.758;9.582;2023-07-30T09:50:18;98851.72;;;25.38;55.70
78488;BME280;67885;49.758;9.582;2023-07-30T09:52:45;98851.03;;;25.43;53.69
78488;BME280;67885;49.758;9.582;2023-07-30T09:55:16;98771.50;;;25.00;54.51
78488;BME280;67885;49.758;9.582;2023-07-30T09:57:44;98844.00;;;25.54;52.84
78488;BME280;67885;49.758;9.582;2023-07-30T10:00:11;98830.53;;;25.47;54.30
78488;BME280;67885;49.758;9.582;2023-07-30T10:02:39;98845.97;;;25.65;54.16
78488;BME280;67885;49.758;9.582;2023-07-30T10:05:10;98847.41;;;25.80;51.96
78488;BME280;67885;49.758;9.582;2023-07-30T10:07:42;98847.78;;;25.83;52.41
78488;BME280;67885;49.758;9.582;2023-07-30T10:10:11;98849.56;;;25.89;53.40
78488;BME280;67885;49.758;9.582;2023-07-30T10:12:41;98845.69;;;25.97;54.74
78488;BME280;67885;49.758;9.582;2023-07-30T10:15:09;98846.00;;;26.07;52.47
78488;BME280;67885;49.758;9.582;2023-07-30T10:17:36;98846.69;;;26.15;52.83
78488;BME280;67885;49.758;9.582;2023-07-30T10:20:24;98842.69;;;26.17;52.69
78488;BME280;67885;49.758;9.582;2023-07-30T10:22:52;98850.34;;;26.20;50.80
78488;BME280;67885;49.758;9.582;2023-07-30T10:25:21;98843.75;;;26.16;49.53
78488;BME280;67885;49.758;9.582;2023-07-30T10:27:51;98853.03;;;26.08;51.53
78488;BME280;67885;49.758;9.582;2023-07-30T10:30:19;98816.78;;;25.91;52.75
78488;BME280;67885;49.758;9.582;2023-07-30T10:33:01;98845.84;;;26.02;52.27
78488;BME280;67885;49.758;9.582;2023-07-30T10:35:39;98844.16;;;26.01;52.74
78488;BME280;67885;49.758;9.582;2023-07-30T10:38:15;98842.19;;;26.08;53.10
78488;BME280;67885;49.758;9.582;2023-07-30T10:40:59;98824.97;;;26.15;50.73
78488;BME280;67885;49.758;9.582;2023-07-30T10:43:28;98828.88;;;26.19;51.15
78488;BME280;67885;49.758;9.582;2023-07-30T10:45:55;98829.13;;;26.29;51.24
78488;BME280;67885;49.758;9.582;2023-07-30T10:48:30;98821.94;;;26.35;48.13
78488;BME280;67885;49.758;9.582;2023-07-30T10:50:57;98830.66;;;26.37;49.22
78488;BME280;67885;49.758;9.582;2023-07-30T10:53:24;98838.69;;;26.43;46.46
78488;BME280;67885;49.758;9.582;2023-07-30T10:55:51;98825.72;;;26.34;46.48
78488;BME280;67885;49.758;9.582;2023-07-30T10:58:20;98846.84;;;26.32;46.44
78488;BME280;67885;49.758;9.582;2023-07-30T11:00:49;98846.25;;;26.30;47.52
78488;BME280;67885;49.758;9.582;2023-07-30T11:03:16;98855.22;;;26.30;45.58
78488;BME280;67885;49.758;9.582;2023-07-30T11:05:46;98851.78;;;26.23;46.06
78488;BME280;67885;49.758;9.582;2023-07-30T11:08:13;98866.03;;;26.06;43.76
78488;BME280;67885;49.758;9.582;2023-07-30T11:10:44;98872.69;;;25.92;41.73
78488;BME280;67885;49.758;9.582;2023-07-30T11:13:12;98877.09;;;25.74;41.20
78488;BME280;67885;49.758;9.582;2023-07-30T11:15:43;98877.00;;;25.51;40.43
78488;BME280;67885;49.758;9.582;2023-07-30T11:18:12;98892.25;;;25.33;41.53
78488;BME280;67885;49.758;9.582;2023-07-30T11:20:39;98893.56;;;25.24;41.74
78488;BME280;67885;49.758;9.582;2023-07-30T11:23:19;98906.84;;;25.14;41.72
78488;BME280;67885;49.758;9.582;2023-07-30T11:25:47;98907.50;;;25.09;42.21
78488;BME280;67885;49.758;9.582;2023-07-30T11:28:15;98902.59;;;24.99;41.75
78488;BME280;67885;49.758;9.582;2023-07-30T11:30:42;98908.91;;;24.93;42.73
78488;BME280;67885;49.758;9.582;2023-07-30T11:33:16;98910.97;;;24.98;43.68
78488;BME280;67885;49.758;9.582;2023-07-30T11:35:43;98888.22;;;24.80;44.16
78488;BME280;67885;49.758;9.582;2023-07-30T11:38:12;98920.66;;;25.05;44.13
78488;BME280;67885;49.758;9.582;2023-07-30T11:40:40;98936.19;;;25.17;45.13
78488;BME280;67885;49.758;9.582;2023-07-30T11:43:07;98913.75;;;25.28;45.30
78488;BME280;67885;49.758;9.582;2023-07-30T11:45:33;98919.88;;;25.42;45.77
78488;BME280;67885;49.758;9.582;2023-07-30T11:48:10;98911.72;;;25.61;45.21
78488;BME280;67885;49.758;9.582;2023-07-30T11:50:46;98916.16;;;25.73;44.41
78488;BME280;67885;49.758;9.582;2023-07-30T11:53:14;98916.50;;;25.77;43.94
78488;BME280;67885;49.758;9.582;2023-07-30T11:55:43;98927.97;;;25.79;43.75
78488;BME280;67885;49.758;9.582;2023-07-30T11:58:11;98920.19;;;25.83;43.88
78488;BME280;67885;49.758;9.582;2023-07-30T12:00:39;98908.50;;;25.82;43.79
78488;BME280;67885;49.758;9.582;2023-07-30T12:03:10;98926.28;;;25.97;43.07
78488;BME280;67885;49.758;9.582;2023-07-30T12:05:38;98936.66;;;26.00;43.09
78488;BME280;67885;49.758;9.582;2023-07-30T12:08:13;98889.78;;;25.62;42.09
78488;BME280;67885;49.758;9.582;2023-07-30T12:10:43;98878.38;;;25.41;42.99
78488;BME280;67885;49.758;9.582;2023-07-30T12:13:16;98937.78;;;25.80;42.48
78488;BME280;67885;49.758;9.582;2023-07-30T12:15:44;98940.91;;;25.77;43.26
78488;BME280;67885;49.758;9.582;2023-07-30T12:18:16;98937.63;;;25.75;42.27
78488;BME280;67885;49.758;9.582;2023-07-30T12:20:43;98944.81;;;25.69;42.75
78488;BME280;67885;49.758;9.582;2023-07-30T12:23:11;98942.09;;;25.69;43.30
78488;BME280;67885;49.758;9.582;2023-07-30T12:25:37;98949.06;;;25.77;43.58
78488;BME280;67885;49.758;9.582;2023-07-30T12:28:04;98925.94;;;25.74;43.16
78488;BME280;67885;49.758;9.582;2023-07-30T12:30:31;98942.34;;;25.80;41.21
78488;BME280;67885;49.758;9.582;2023-07-30T12:32:57;98947.19;;;25.78;42.25
78488;BME280;67885;49.758;9.582;2023-07-30T12:35:24;98943.41;;;25.79;41.78
78488;BME280;67885;49.758;9.582;2023-07-30T12:37:51;98942.00;;;25.76;41.20
78488;BME280;67885;49.758;9.582;2023-07-30T12:40:19;98948.47;;;25.75;41.55
78488;BME280;67885;49.758;9.582;2023-07-30T12:42:45;98943.88;;;25.75;41.18
78488;BME280;67885;49.758;9.582;2023-07-30T12:45:12;98949.44;;;25.81;41.92
78488;BME280;67885;49.758;9.582;2023-07-30T12:47:39;98948.97;;;25.84;41.32
78488;BME280;67885;49.758;9.582;2023-07-30T12:50:06;98951.84;;;25.89;41.95
78488;BME280;67885;49.758;9.582;2023-07-30T12:52:34;98964.34;;;25.90;42.01
78488;BME280;67885;49.758;9.582;2023-07-30T12:55:01;98824.50;;;24.96;40.69
78488;BME280;67885;49.758;9.582;2023-07-30T12:57:30;98969.94;;;25.77;39.91
78488;BME280;67885;49.758;9.582;2023-07-30T12:59:57;98970.84;;;25.70;39.34
78488;BME280;67885;49.758;9.582;2023-07-30T13:02:23;98974.03;;;25.67;39.98